Time;durP1;ratioP1;P1;durP2;ratioP2;P2;SDS_P1;SDS_P2;PMS_P1;PMS_P2;Temp;Humidity;BMP_temperature;BMP_pressure;BME280_temperature;BME280_humidity;BME280_pressure;Samples;Min_cycle;Max_cycle;Signal;HPM_P1;HPM_P2
2022/10/02 00:02:23;;;;;;;5.57;1.33;;;;;;;23.10;48.57;101244.09;4158667;28;20500;-60
2022/10/02 00:04:43;;;;;;;2.67;1.10;;;;;;;23.01;48.57;101217.91;4182477;28;20057;-59
2022/10/02 00:06:47;;;;;;;3.45;0.98;;;;;;;22.46;48.54;101122.22;4182326;28;20569;-60
2022/10/02 00:08:53;;;;;;;2.88;1.00;;;;;;;23.14;48.87;101234.00;4182171;28;20098;-59
2022/10/02 00:11:15;;;;;;;2.38;0.85;;;;;;;23.13;48.94;101242.66;4182488;28;20062;-60
2022/10/02 00:13:22;;;;;;;2.53;1.30;;;;;;;23.14;48.87;101247.97;4186057;28;20032;-60
2022/10/02 00:15:30;;;;;;;5.30;1.20;;;;;;;23.16;48.67;101247.69;4198696;28;20045;-59
2022/10/02 00:17:37;;;;;;;3.45;1.02;;;;;;;23.20;48.56;101249.59;4184310;28;20395;-59
2022/10/02 00:19:43;;;;;;;4.40;1.00;;;;;;;23.20;48.56;101255.19;4184557;28;20443;-59
2022/10/02 00:22:14;;;;;;;4.85;1.10;;;;;;;23.19;48.33;101247.94;4192135;28;20086;-60
2022/10/02 00:24:22;;;;;;;4.90;1.50;;;;;;;23.22;48.34;101244.53;4189358;28;20049;-60
2022/10/02 00:26:46;;;;;;;2.75;1.13;;;;;;;23.22;48.49;101252.09;4194436;28;20442;-59
2022/10/02 00:29:06;;;;;;;3.20;1.35;;;;;;;23.23;48.22;101249.03;4181207;28;20485;-59
2022/10/02 00:31:07;;;;;;;6.22;1.20;;;;;;;23.27;48.34;101257.63;4181670;28;20415;-60
2022/10/02 00:33:24;;;;;;;4.43;1.65;;;;;;;23.04;48.14;101220.94;4181126;28;20107;-59
2022/10/02 00:36:00;;;;;;;2.15;1.17;;;;;;;23.25;48.24;101257.94;4183100;28;20098;-60
2022/10/02 00:38:11;;;;;;;4.78;1.35;;;;;;;23.19;48.01;101242.34;4188097;28;20066;-60
2022/10/02 00:40:35;;;;;;;6.03;1.30;;;;;;;23.27;47.93;101247.31;4195223;28;20044;-60
2022/10/02 00:42:51;;;;;;;2.72;1.17;;;;;;;23.28;48.21;101251.78;4186581;28;20090;-60
2022/10/02 00:44:58;;;;;;;4.25;1.55;;;;;;;23.27;48.13;101244.50;4181513;28;20095;-61
2022/10/02 00:47:05;;;;;;;3.15;1.30;;;;;;;23.28;47.95;101249.00;4181611;28;20102;-59
2022/10/02 00:49:11;;;;;;;3.88;1.40;;;;;;;23.30;47.79;101243.09;4187459;28;20036;-59
2022/10/02 00:51:31;;;;;;;3.72;1.40;;;;;;;23.28;48.01;101257.38;4181494;28;20058;-60
2022/10/02 00:54:09;;;;;;;2.75;1.52;;;;;;;23.27;47.84;101266.84;4185359;28;20040;-60
2022/10/02 00:56:25;;;;;;;3.80;1.55;;;;;;;23.30;47.73;101260.69;4180950;28;20424;-60
2022/10/02 00:58:47;;;;;;;6.32;1.42;;;;;;;23.32;47.68;101263.19;4188734;28;20122;-60
2022/10/02 01:01:14;;;;;;;2.20;1.40;;;;;;;23.32;47.73;101269.63;4181576;28;20025;-60
2022/10/02 01:03:32;;;;;;;3.47;1.67;;;;;;;23.30;47.85;101266.28;4193068;28;20109;-60
2022/10/02 01:05:34;;;;;;;4.15;1.92;;;;;;;23.27;47.62;101258.47;4180955;28;20099;-60
2022/10/02 01:07:44;;;;;;;2.45;1.20;;;;;;;23.32;48.30;101257.59;4182233;28;20041;-59
2022/10/02 01:09:45;;;;;;;2.92;1.50;;;;;;;23.32;47.94;101255.66;4181810;28;20079;-60
2022/10/02 01:11:47;;;;;;;3.55;1.52;;;;;;;23.31;48.19;101259.56;4185953;28;20534;-60
2022/10/02 01:13:52;;;;;;;3.72;1.80;;;;;;;23.30;47.76;101255.09;4185147;28;20083;-60
2022/10/02 01:15:59;;;;;;;4.38;1.60;;;;;;;23.01;48.05;101207.56;4195919;28;20401;-60
2022/10/02 01:18:01;;;;;;;3.85;1.77;;;;;;;23.30;47.98;101266.28;4181935;28;20118;-60
2022/10/02 01:20:04;;;;;;;3.13;1.48;;;;;;;23.30;48.15;101259.88;4181577;28;20090;-60
2022/10/02 01:22:19;;;;;;;4.18;1.70;;;;;;;23.29;47.83;101270.19;4181057;28;20041;-60
2022/10/02 01:24:33;;;;;;;4.43;1.48;;;;;;;23.29;47.89;101270.19;4189516;28;20583;-60
2022/10/02 01:26:35;;;;;;;8.43;1.60;;;;;;;23.28;48.08;101273.28;4186362;28;20091;-60
2022/10/02 01:28:36;;;;;;;3.10;1.75;;;;;;;23.32;47.90;101272.44;4186483;28;20058;-60
2022/10/02 01:30:41;;;;;;;3.42;1.60;;;;;;;23.28;47.75;101262.13;4192082;28;20048;-60
2022/10/02 01:32:54;;;;;;;3.28;1.40;;;;;;;23.30;47.70;101265.44;4183535;28;20053;-60
2022/10/02 01:34:59;;;;;;;5.10;1.67;;;;;;;23.27;47.81;101258.47;4184571;28;20561;-60
2022/10/02 01:37:01;;;;;;;3.50;2.03;;;;;;;23.32;47.97;101263.19;4194283;28;20646;-61
2022/10/02 01:39:03;;;;;;;2.72;1.63;;;;;;;23.07;48.22;101223.16;4182680;28;20103;-59
2022/10/02 01:41:06;;;;;;;3.03;1.65;;;;;;;23.29;47.68;101264.63;4190140;28;20091;-60
2022/10/02 01:43:16;;;;;;;2.00;1.38;;;;;;;23.31;47.95;101255.94;4185225;28;20087;-60
2022/10/02 01:45:32;;;;;;;4.10;1.33;;;;;;;23.25;47.77;101249.56;4186466;28;20066;-60
2022/10/02 01:48:00;;;;;;;4.53;1.40;;;;;;;23.30;47.83;101260.69;4197742;28;20036;-60
2022/10/02 01:50:19;;;;;;;3.30;1.52;;;;;;;23.32;48.02;101264.03;4196155;28;20036;-60
2022/10/02 01:52:39;;;;;;;4.05;1.60;;;;;;;23.32;47.97;101257.59;4195422;28;20049;-60
2022/10/02 01:54:58;;;;;;;3.47;1.80;;;;;;;23.30;47.90;101255.09;4180146;28;20044;-60
2022/10/02 01:57:17;;;;;;;2.60;1.70;;;;;;;23.32;48.06;101260.41;4191916;28;20040;-59
2022/10/02 01:59:49;;;;;;;3.08;1.58;;;;;;;23.28;47.99;101257.38;4181409;28;20542;-60
2022/10/02 02:02:23;;;;;;;1.98;1.38;;;;;;;23.29;47.79;101261.00;4189747;28;20044;-60
2022/10/02 02:05:08;;;;;;;2.38;1.60;;;;;;;23.28;48.08;101262.13;4197589;28;20150;-60
2022/10/02 02:07:24;;;;;;;4.00;1.67;;;;;;;23.31;48.33;101258.72;4197285;28;20052;-60
2022/10/02 02:09:31;;;;;;;2.70;1.50;;;;;;;23.32;47.96;101264.03;4196303;28;20509;-60
2022/10/02 02:11:38;;;;;;;2.40;1.38;;;;;;;23.29;48.41;101259.03;4186542;28;20033;-60
2022/10/02 02:13:45;;;;;;;4.10;1.80;;;;;;;23.28;47.99;101257.38;4195803;28;20041;-60
2022/10/02 02:16:09;;;;;;;3.15;1.55;;;;;;;23.27;48.09;101250.09;4188194;28;20041;-60
2022/10/02 02:18:36;;;;;;;2.72;1.33;;;;;;;23.29;48.13;101263.78;4181262;28;20369;-60
2022/10/02 02:20:45;;;;;;;3.00;1.65;;;;;;;23.28;48.30;101282.50;4157957;28;20492;-60
2022/10/02 02:22:50;;;;;;;4.28;1.27;;;;;;;23.02;48.26;101219.56;4197356;28;20419;-60
2022/10/02 02:24:56;;;;;;;;;;;;;;;23.28;48.43;101262.13;4189686;28;20072;-60
2022/10/02 02:27:01;;;;;;;4.25;1.55;;;;;;;23.24;48.18;101233.94;4188776;28;19916;-60
2022/10/02 02:29:07;;;;;;;2.63;1.25;;;;;;;23.29;48.27;101238.66;4195895;28;20040;-60
2022/10/02 02:31:16;;;;;;;4.47;1.60;;;;;;;23.30;48.28;101234.72;4197342;28;20435;-60
2022/10/02 02:33:24;;;;;;;2.33;1.55;;;;;;;23.15;48.33;101212.50;4194984;28;20037;-60
2022/10/02 02:35:37;;;;;;;2.22;1.17;;;;;;;23.27;48.18;101233.34;4197306;28;20102;-60
2022/10/02 02:37:41;;;;;;;2.72;1.40;;;;;;;23.27;48.18;101243.69;4179447;28;20045;-61
2022/10/02 02:39:59;;;;;;;6.85;1.42;;;;;;;23.22;48.69;101236.16;4180368;28;20106;-61
2022/10/02 02:42:05;;;;;;;6.68;1.63;;;;;;;23.08;48.62;101226.78;4180264;28;20037;-60
2022/10/02 02:44:18;;;;;;;11.75;2.15;;;;;;;23.19;48.76;101242.34;4188561;28;20032;-61
2022/10/02 02:46:31;;;;;;;5.40;1.63;;;;;;;23.18;49.12;101253.78;4192273;28;20044;-60
2022/10/02 02:48:38;;;;;;;10.27;2.03;;;;;;;23.16;48.89;101242.09;4207392;28;20040;-61
2022/10/02 02:50:46;;;;;;;3.90;1.65;;;;;;;23.09;48.82;101234.03;4180452;28;20033;-60
2022/10/02 02:52:59;;;;;;;6.40;1.50;;;;;;;23.20;48.88;101241.22;4209379;28;20445;-60
2022/10/02 02:55:21;;;;;;;12.02;2.00;;;;;;;23.19;49.07;101242.34;4198037;28;20094;-61
2022/10/02 02:57:29;;;;;;;3.28;1.40;;;;;;;23.24;48.65;101244.28;4182457;28;20098;-61
2022/10/02 02:59:37;;;;;;;2.38;1.40;;;;;;;23.25;48.57;101238.41;4183797;28;20033;-61
2022/10/02 03:01:42;;;;;;;5.18;1.30;;;;;;;23.04;48.69;101200.56;4183190;28;20158;-61
2022/10/02 03:03:44;;;;;;;;;;;;;;;23.25;48.76;101241.19;4182438;28;20071;-61
2022/10/02 03:06:03;;;;;;;4.10;1.60;;;;;;;23.21;48.78;101223.34;4184330;28;19917;-61
2022/10/02 03:08:11;;;;;;;2.53;1.40;;;;;;;23.33;48.52;101234.16;4183207;28;20091;-61
2022/10/02 03:10:20;;;;;;;3.95;1.40;;;;;;;23.32;48.58;101230.53;4183468;28;20091;-61
2022/10/02 03:12:57;;;;;;;3.97;1.10;;;;;;;23.27;48.54;101227.75;4182437;28;20091;-61
2022/10/02 03:15:26;;;;;;;2.60;1.30;;;;;;;23.28;48.47;101229.44;4182376;28;20099;-61
2022/10/02 03:17:58;;;;;;;5.05;1.73;;;;;;;23.28;48.32;101223.03;4180219;28;20041;-61
2022/10/02 03:20:24;;;;;;;4.30;1.40;;;;;;;23.27;48.39;101216.59;4187290;28;20082;-61
2022/10/02 03:22:49;;;;;;;2.30;1.13;;;;;;;23.29;48.41;101228.31;4187695;28;20442;-61
2022/10/02 03:25:02;;;;;;;3.53;1.30;;;;;;;23.29;48.74;101231.09;4183372;28;20067;-61
2022/10/02 03:27:16;;;;;;;2.30;1.30;;;;;;;23.25;48.65;101235.59;4196382;28;20044;-61
2022/10/02 03:29:27;;;;;;;3.60;1.33;;;;;;;23.26;48.86;101234.47;4199325;28;20040;-60
2022/10/02 03:31:31;;;;;;;3.92;1.23;;;;;;;23.27;48.55;101236.13;4199088;28;20430;-60
2022/10/02 03:33:38;;;;;;;2.60;1.23;;;;;;;23.26;48.71;101242.84;4199462;28;20141;-60
2022/10/02 03:35:41;;;;;;;2.45;1.23;;;;;;;23.21;48.70;101228.09;4199321;28;20041;-61
2022/10/02 03:37:47;;;;;;;2.50;1.33;;;;;;;23.24;48.78;101245.09;4195609;28;20040;-60
2022/10/02 03:39:48;;;;;;;4.35;1.10;;;;;;;23.21;49.15;101236.47;4186462;28;20040;-60
2022/10/02 03:41:52;;;;;;;5.65;1.30;;;;;;;23.23;48.80;101245.38;4193502;28;20098;-60
2022/10/02 03:43:54;;;;;;;2.53;1.42;;;;;;;23.21;48.96;101240.09;4195358;28;20067;-60
2022/10/02 03:45:58;;;;;;;2.20;1.20;;;;;;;23.22;48.87;101249.31;4182564;28;20094;-60
2022/10/02 03:48:02;;;;;;;2.97;1.37;;;;;;;23.21;48.64;101245.69;4189030;28;20048;-60
2022/10/02 03:50:06;;;;;;;5.63;1.42;;;;;;;23.21;48.42;101248.47;4184782;28;20322;-61
2022/10/02 03:52:17;;;;;;;3.35;1.23;;;;;;;23.22;48.92;101246.50;4182250;28;20049;-61
2022/10/02 03:54:20;;;;;;;2.05;1.20;;;;;;;22.95;48.62;101211.50;4198056;28;20094;-58
2022/10/02 03:56:24;;;;;;;2.42;1.10;;;;;;;23.23;48.54;101253.75;4188775;28;20029;-59
2022/10/02 03:58:25;;;;;;;2.00;1.30;;;;;;;23.01;48.81;101223.50;4183368;28;20041;-59
2022/10/02 04:00:40;;;;;;;3.42;1.50;;;;;;;23.19;48.84;101250.72;4182281;28;20075;-59
2022/10/02 04:03:16;;;;;;;3.73;1.70;;;;;;;23.13;48.93;101240.69;4182021;28;20061;-60
2022/10/02 04:05:23;;;;;;;3.25;1.20;;;;;;;23.19;48.75;101247.94;4149159;28;20041;-60
2022/10/02 04:07:33;;;;;;;2.10;1.40;;;;;;;23.22;48.73;101264.09;4182641;28;20106;-60
2022/10/02 04:10:02;;;;;;;2.17;1.40;;;;;;;22.64;48.93;101163.41;4182680;28;20075;-59
2022/10/02 04:12:18;;;;;;;1.95;1.20;;;;;;;23.19;49.00;101258.28;4181599;28;20041;-60
2022/10/02 04:14:34;;;;;;;2.97;1.23;;;;;;;23.19;48.91;101261.91;4186602;28;20037;-60
2022/10/02 04:17:00;;;;;;;2.78;1.30;;;;;;;23.15;48.75;101254.38;4182293;28;20045;-60
2022/10/02 04:19:13;;;;;;;3.53;1.42;;;;;;;23.16;49.15;101251.28;4182586;28;20103;-60
2022/10/02 04:21:44;;;;;;;1.83;1.20;;;;;;;23.13;49.11;101248.25;4182332;28;20033;-59
2022/10/02 04:24:08;;;;;;;1.80;1.23;;;;;;;23.15;49.08;101257.19;4180534;28;20049;-59
2022/10/02 04:26:34;;;;;;;1.60;1.23;;;;;;;23.16;48.55;101253.25;4182443;28;20087;-59
2022/10/02 04:28:41;;;;;;;1.73;1.20;;;;;;;23.17;48.81;101261.34;4182398;28;20083;-60
2022/10/02 04:30:45;;;;;;;3.30;1.30;;;;;;;23.15;48.92;101252.44;4181716;28;20079;-60
2022/10/02 04:32:46;;;;;;;3.13;1.63;;;;;;;22.97;49.05;101222.41;4197058;28;20114;-59
2022/10/02 04:34:48;;;;;;;8.80;1.42;;;;;;;23.15;49.06;101262.75;4182240;28;20033;-59
2022/10/02 04:36:58;;;;;;;2.38;1.48;;;;;;;23.13;49.20;101256.63;4183494;28;20481;-59
2022/10/02 04:39:18;;;;;;;1.38;1.10;;;;;;;23.08;49.42;101252.72;4198545;28;20040;-60
2022/10/02 04:41:48;;;;;;;1.83;1.33;;;;;;;23.08;48.85;101258.31;4181779;28;20106;-60
2022/10/02 04:44:29;;;;;;;4.47;1.77;;;;;;;23.11;49.15;101256.91;4182112;28;20037;-60
2022/10/02 04:46:52;;;;;;;3.50;1.27;;;;;;;23.14;48.82;101253.56;4181985;28;20044;-59
2022/10/02 04:49:05;;;;;;;2.03;1.10;;;;;;;23.15;48.69;101249.63;4191130;28;20044;-59
2022/10/02 04:51:44;;;;;;;3.45;1.73;;;;;;;23.11;49.00;101256.09;4193519;28;20033;-60
2022/10/02 04:54:24;;;;;;;1.83;1.08;;;;;;;23.09;48.73;101250.75;4124819;28;20398;-59
2022/10/02 04:56:39;;;;;;;3.20;1.35;;;;;;;23.07;48.66;101239.91;4082495;29;20044;-62
2022/10/02 04:59:11;;;;;;;1.95;1.30;;;;;;;23.16;48.64;101258.84;4150665;28;20178;-60
2022/10/02 05:01:37;;;;;;;2.65;1.60;;;;;;;23.16;48.89;101254.09;4157584;28;20094;-61
2022/10/02 05:03:50;;;;;;;3.15;1.17;;;;;;;23.17;48.66;101254.91;4181083;28;20044;-59
2022/10/02 05:06:18;;;;;;;1.55;1.35;;;;;;;22.88;48.81;101207.34;4182024;28;20053;-59
2022/10/02 05:08:25;;;;;;;1.40;1.00;;;;;;;23.16;48.51;101251.28;4181854;28;20104;-59
2022/10/02 05:11:05;;;;;;;1.42;1.30;;;;;;;23.12;48.92;101253.00;4181444;28;20114;-59
2022/10/02 05:13:18;;;;;;;2.58;1.00;;;;;;;23.12;48.78;101253.00;4180889;28;20098;-60
2022/10/02 05:15:34;;;;;;;2.58;1.45;;;;;;;23.11;48.71;101250.50;4180966;28;20041;-59
2022/10/02 05:18:13;;;;;;;2.42;0.98;;;;;;;23.08;48.98;101251.91;4181323;28;20515;-60
2022/10/02 05:20:43;;;;;;;0.90;0.90;;;;;;;23.13;48.51;101253.81;4195416;28;20060;-59
2022/10/02 05:22:57;;;;;;;2.00;1.40;;;;;;;23.12;48.54;101249.38;4183194;28;20056;-60
2022/10/02 05:25:09;;;;;;;1.50;1.00;;;;;;;23.13;48.48;101251.88;4197918;28;20366;-59
2022/10/02 05:27:41;;;;;;;1.95;1.35;;;;;;;23.11;48.49;101245.75;4197793;28;20044;-60
2022/10/02 05:30:07;;;;;;;1.63;1.08;;;;;;;23.12;48.69;101241.00;4197586;28;20040;-59
2022/10/02 05:32:45;;;;;;;1.80;1.10;;;;;;;23.12;48.57;101247.41;4196472;28;20549;-60
2022/10/02 05:34:53;;;;;;;1.63;0.90;;;;;;;23.14;48.70;101242.38;4197767;28;20098;-60
2022/10/02 05:37:30;;;;;;;2.22;1.30;;;;;;;23.12;48.58;101241.81;4197887;28;20066;-61
2022/10/02 05:39:39;;;;;;;1.65;0.90;;;;;;;23.12;48.54;101236.25;4159813;28;20037;-59
2022/10/02 05:41:41;;;;;;;2.17;0.90;;;;;;;23.15;48.53;101241.25;4180597;28;20472;-60
2022/10/02 05:44:11;;;;;;;1.67;1.00;;;;;;;23.12;48.43;101238.19;4181302;28;20044;-58
2022/10/02 05:46:22;;;;;;;1.50;1.17;;;;;;;23.15;48.63;101240.44;4185462;28;20032;-59
2022/10/02 05:48:40;;;;;;;2.10;0.95;;;;;;;23.10;48.18;101221.75;4195662;28;20037;-60
2022/10/02 05:50:45;;;;;;;1.27;1.02;;;;;;;23.14;48.37;101233.16;4184039;28;20040;-60
2022/10/02 05:52:56;;;;;;;1.48;1.30;;;;;;;23.12;48.48;101227.88;4191968;28;20086;-62
2022/10/02 05:55:11;;;;;;;1.42;1.00;;;;;;;23.11;48.32;101226.22;4186266;28;20037;-61
2022/10/02 05:57:34;;;;;;;2.35;1.00;;;;;;;22.87;48.43;101189.78;4180759;28;20033;-60
2022/10/02 05:59:56;;;;;;;1.65;1.00;;;;;;;22.88;48.57;101182.22;4189852;28;20033;-60
2022/10/02 06:02:01;;;;;;;1.98;0.90;;;;;;;23.14;48.61;101222.84;4195676;28;20094;-60
2022/10/02 06:04:13;;;;;;;1.88;1.10;;;;;;;23.12;48.44;101225.06;4193552;28;20485;-60
2022/10/02 06:06:16;;;;;;;1.55;0.95;;;;;;;23.13;48.05;101211.94;4180615;28;20094;-60
2022/10/02 06:08:22;;;;;;;2.58;1.30;;;;;;;23.12;48.42;101213.91;4180911;28;20481;-60
2022/10/02 06:10:47;;;;;;;1.88;1.30;;;;;;;23.08;48.32;101222.03;4183935;28;20045;-59
2022/10/02 06:13:14;;;;;;;1.35;0.90;;;;;;;23.01;48.22;101209.53;4196443;28;20373;-59
2022/10/02 06:15:26;;;;;;;2.38;1.10;;;;;;;23.09;48.29;101222.84;4192991;28;20062;-59
2022/10/02 06:17:41;;;;;;;0.85;0.85;;;;;;;23.08;48.68;101223.97;4182294;28;20048;-59
2022/10/02 06:19:54;;;;;;;1.42;1.00;;;;;;;23.11;48.50;101223.41;4194940;28;20078;-62
2022/10/02 06:22:11;;;;;;;1.25;0.98;;;;;;;23.12;48.19;101224.25;4180553;28;20083;-59
2022/10/02 06:24:20;;;;;;;1.17;1.08;;;;;;;23.11;48.28;101228.16;4193051;28;20040;-59
2022/10/02 06:26:28;;;;;;;1.33;0.95;;;;;;;23.11;48.45;101211.41;4198318;28;20126;-59
2022/10/02 06:28:45;;;;;;;1.95;0.80;;;;;;;22.98;48.41;101196.16;4195935;28;20152;-59
2022/10/02 06:30:55;;;;;;;1.23;0.70;;;;;;;23.10;48.61;101207.78;4184163;28;20435;-61
2022/10/02 06:33:09;;;;;;;0.70;0.70;;;;;;;23.09;48.23;101208.91;4182258;28;20102;-60
2022/10/02 06:35:12;;;;;;;1.73;0.93;;;;;;;22.98;48.36;101196.97;4188959;28;20094;-59
2022/10/02 06:37:32;;;;;;;3.05;1.05;;;;;;;23.09;48.15;101206.09;4199461;28;20387;-59
2022/10/02 06:39:45;;;;;;;1.42;1.00;;;;;;;23.07;48.25;101194.41;4194931;28;20021;-59
2022/10/02 06:42:14;;;;;;;0.98;0.88;;;;;;;23.06;48.45;101203.91;4200325;28;20097;-59
2022/10/02 06:44:37;;;;;;;1.75;1.10;;;;;;;23.07;48.22;101208.38;4183729;28;20049;-59
2022/10/02 06:47:10;;;;;;;1.42;0.80;;;;;;;23.08;48.35;101196.06;4186373;28;20078;-60
2022/10/02 06:49:24;;;;;;;1.27;1.05;;;;;;;23.10;48.17;101202.22;4200354;28;20041;-62
2022/10/02 06:52:02;;;;;;;1.63;0.85;;;;;;;22.95;48.33;101186.38;4187476;28;20110;-59
2022/10/02 06:54:07;;;;;;;1.33;1.10;;;;;;;23.10;48.42;101193.84;4186492;28;20095;-60
2022/10/02 06:56:45;;;;;;;1.02;0.75;;;;;;;23.09;48.25;101208.91;4194007;28;20082;-60
2022/10/02 06:59:28;;;;;;;1.08;0.80;;;;;;;23.08;48.22;101196.06;4192928;28;20052;-60
2022/10/02 07:01:53;;;;;;;1.30;1.00;;;;;;;23.04;48.47;101190.22;4186581;28;20045;-59
2022/10/02 07:04:13;;;;;;;1.85;0.95;;;;;;;23.10;48.46;101201.38;4189570;28;20408;-59
2022/10/02 07:06:39;;;;;;;1.40;0.75;;;;;;;23.07;48.35;101195.25;4186864;28;20431;-59
2022/10/02 07:09:17;;;;;;;1.00;0.77;;;;;;;23.06;48.40;101198.34;4183353;28;20049;-59
2022/10/02 07:11:39;;;;;;;1.42;0.95;;;;;;;23.06;48.25;101192.75;4189031;28;20024;-60
2022/10/02 07:14:14;;;;;;;1.33;1.05;;;;;;;22.97;48.14;101173.00;4198887;28;20113;-60
2022/10/02 07:16:35;;;;;;;0.80;0.70;;;;;;;23.05;48.63;101191.09;4186639;28;20052;-60
2022/10/02 07:18:51;;;;;;;1.90;1.10;;;;;;;23.07;48.45;101186.03;4198564;28;20462;-60
2022/10/02 07:21:17;;;;;;;0.77;0.73;;;;;;;23.03;48.33;101179.34;4198436;28;20109;-59
2022/10/02 07:23:55;;;;;;;1.17;0.75;;;;;;;23.03;48.19;101187.72;4186445;28;20055;-60
2022/10/02 07:26:11;;;;;;;1.00;0.90;;;;;;;23.07;48.22;101183.25;4148956;28;20499;-59
2022/10/02 07:28:31;;;;;;;1.13;1.00;;;;;;;23.05;48.15;101191.09;4196888;28;20097;-60
2022/10/02 07:30:50;;;;;;;1.40;0.77;;;;;;;23.05;48.11;101191.09;4199258;28;20040;-60
2022/10/02 07:33:06;;;;;;;1.05;0.88;;;;;;;23.06;48.54;101189.97;4191908;28;20094;-60
2022/10/02 07:35:27;;;;;;;0.70;0.70;;;;;;;23.05;48.07;101191.09;4183075;28;20045;-60
2022/10/02 07:37:42;;;;;;;2.47;1.13;;;;;;;23.04;48.33;101183.81;4182600;28;20118;-59
2022/10/02 07:40:01;;;;;;;1.27;0.90;;;;;;;23.07;48.22;101194.41;4199255;28;20476;-60
2022/10/02 07:42:36;;;;;;;0.80;0.60;;;;;;;23.04;48.48;101189.41;4199438;28;20036;-60
2022/10/02 07:45:04;;;;;;;2.33;1.10;;;;;;;23.02;48.05;101180.50;4195274;28;20095;-60
2022/10/02 07:47:27;;;;;;;1.15;0.80;;;;;;;23.06;47.96;101181.59;4183011;28;20091;-60
2022/10/02 07:49:35;;;;;;;1.90;1.10;;;;;;;23.05;47.95;101185.50;4182979;28;20041;-60
2022/10/02 07:51:57;;;;;;;1.50;0.80;;;;;;;23.02;48.08;101184.13;4182669;28;20492;-60
2022/10/02 07:54:28;;;;;;;1.75;0.82;;;;;;;23.03;47.93;101182.97;4182965;28;20037;-60
2022/10/02 07:56:31;;;;;;;1.65;0.80;;;;;;;23.04;48.03;101186.59;4182638;28;20045;-60
2022/10/02 07:59:03;;;;;;;1.38;0.90;;;;;;;22.86;48.24;101149.00;4182565;28;20110;-60
2022/10/02 08:01:11;;;;;;;2.55;0.88;;;;;;;23.03;48.17;101173.78;4177294;28;20037;-60
2022/10/02 08:03:34;;;;;;;0.93;0.75;;;;;;;23.01;47.82;101178.84;4182015;28;20094;-60
2022/10/02 08:05:43;;;;;;;1.08;0.68;;;;;;;23.03;47.90;101171.00;4182782;28;20091;-60
2022/10/02 08:07:49;;;;;;;1.77;1.00;;;;;;;22.94;48.01;101156.81;4182235;28;20049;-60
2022/10/02 08:09:59;;;;;;;0.90;0.77;;;;;;;23.01;48.12;101171.28;4193740;28;20044;-59
2022/10/02 08:12:27;;;;;;;1.15;0.85;;;;;;;23.00;47.98;101182.72;4194412;28;20053;-60
2022/10/02 08:14:51;;;;;;;2.08;0.60;;;;;;;22.92;48.04;101161.88;4199204;28;20033;-60
2022/10/02 08:16:59;;;;;;;1.73;0.93;;;;;;;23.00;48.00;101182.72;4187707;28;20062;-59
2022/10/02 08:19:24;;;;;;;0.70;0.70;;;;;;;23.00;47.84;101182.72;4199357;28;20036;-60
2022/10/02 08:21:27;;;;;;;1.00;0.82;;;;;;;23.04;47.78;101175.44;4184542;28;20109;-59
2022/10/02 08:23:39;;;;;;;0.73;0.65;;;;;;;22.97;47.59;101167.41;4196492;28;20044;-60
2022/10/02 08:26:15;;;;;;;0.80;0.60;;;;;;;23.00;48.02;101177.13;4195967;28;20044;-60
2022/10/02 08:28:23;;;;;;;0.70;0.70;;;;;;;23.01;47.82;101185.25;4177857;28;20037;-60
2022/10/02 08:30:25;;;;;;;2.00;1.15;;;;;;;23.04;47.78;101186.59;4183751;28;20028;-60
2022/10/02 08:32:30;;;;;;;3.80;1.10;;;;;;;23.02;47.94;101180.50;4185347;28;20045;-60
2022/10/02 08:34:32;;;;;;;1.23;0.80;;;;;;;23.03;47.79;101184.94;4192335;28;20559;-60
2022/10/02 08:37:14;;;;;;;0.80;0.65;;;;;;;22.94;48.03;101183.88;4183779;28;20554;-60
2022/10/02 08:39:43;;;;;;;2.28;0.80;;;;;;;22.98;47.70;101191.41;4152612;28;20443;-60
2022/10/02 08:42:21;;;;;;;1.90;0.70;;;;;;;22.98;47.70;101184.97;4195355;28;20041;-60
2022/10/02 08:44:38;;;;;;;1.05;0.93;;;;;;;23.03;47.98;101190.53;4198514;28;20102;-60
2022/10/02 08:47:17;;;;;;;1.40;0.70;;;;;;;22.98;47.88;101185.81;4185837;28;20103;-60
2022/10/02 08:49:36;;;;;;;1.23;0.88;;;;;;;23.01;48.12;101190.00;4184164;28;20091;-59
2022/10/02 08:52:09;;;;;;;0.70;0.60;;;;;;;22.97;48.01;101188.91;4192055;28;20052;-61
2022/10/02 08:54:25;;;;;;;1.52;0.88;;;;;;;22.99;48.15;101186.63;4185033;28;20032;-61
2022/10/02 08:56:47;;;;;;;0.75;0.73;;;;;;;22.98;48.12;101190.56;4190819;28;20036;-61
2022/10/02 08:59:25;;;;;;;1.02;0.70;;;;;;;22.96;48.01;101179.69;4196684;28;20045;-60
2022/10/02 09:01:59;;;;;;;1.02;0.73;;;;;;;22.97;47.86;101177.75;4193843;28;20052;-60
2022/10/02 09:04:37;;;;;;;1.90;0.70;;;;;;;22.95;48.08;101179.97;4183132;28;20052;-61
2022/10/02 09:07:05;;;;;;;0.82;0.75;;;;;;;22.94;47.96;101181.09;4166311;28;20048;-61
2022/10/02 09:09:36;;;;;;;1.80;0.75;;;;;;;22.95;47.85;101194.75;4194828;28;20106;-60
2022/10/02 09:12:04;;;;;;;0.80;0.52;;;;;;;22.96;47.79;101192.81;4193313;28;20056;-60
2022/10/02 09:14:14;;;;;;;0.88;0.60;;;;;;;22.98;47.82;101201.72;4181994;28;20446;-60
2022/10/02 09:16:31;;;;;;;1.20;0.77;;;;;;;22.96;47.91;101210.41;4196305;28;20051;-60
2022/10/02 09:18:45;;;;;;;0.77;0.77;;;;;;;22.94;48.06;101212.63;4182678;28;20036;-60
2022/10/02 09:21:04;;;;;;;0.68;0.68;;;;;;;22.96;48.07;101203.97;4193192;28;20044;-60
2022/10/02 09:23:33;;;;;;;0.77;0.77;;;;;;;22.93;48.15;101204.56;4194193;28;20040;-60
2022/10/02 09:25:55;;;;;;;0.70;0.60;;;;;;;22.71;47.92;101168.66;4183122;28;20094;-60
2022/10/02 09:28:50;;;;;;;1.27;0.65;;;;;;;22.90;48.18;101200.38;4191684;28;20119;-60
2022/10/02 09:31:02;;;;;;;0.60;0.60;;;;;;;22.95;47.88;101213.44;4195773;28;20040;-60
2022/10/02 09:34:04;;;;;;;1.73;0.60;;;;;;;22.92;47.67;101219.63;4184958;28;20044;-60
2022/10/02 09:36:33;;;;;;;1.30;0.80;;;;;;;22.97;47.70;101219.59;4185043;28;20102;-61
2022/10/02 09:38:46;;;;;;;0.70;0.70;;;;;;;22.97;47.66;101222.41;4180443;28;20099;-61
2022/10/02 09:41:05;;;;;;;0.90;0.80;;;;;;;22.94;47.80;101234.13;4183905;28;20503;-60
2022/10/02 09:43:30;;;;;;;0.73;0.70;;;;;;;22.95;47.86;101230.19;4197571;28;20032;-61
2022/10/02 09:45:59;;;;;;;1.45;0.70;;;;;;;22.83;47.65;101209.03;4186912;28;20032;-60
2022/10/02 09:48:10;;;;;;;1.30;0.60;;;;;;;22.95;47.86;101230.19;4183036;28;20048;-60
2022/10/02 09:50:16;;;;;;;0.50;0.50;;;;;;;22.95;47.65;101224.63;4183491;28;20086;-60
2022/10/02 09:52:36;;;;;;;1.02;0.90;;;;;;;22.92;48.07;101231.63;4192633;28;20044;-60
2022/10/02 09:55:25;;;;;;;1.13;0.68;;;;;;;22.92;47.87;101228.00;4184407;28;20070;-60
2022/10/02 09:58:06;;;;;;;0.85;0.70;;;;;;;22.92;47.60;101236.38;4194653;28;20082;-61
2022/10/02 10:00:25;;;;;;;1.05;0.52;;;;;;;22.92;47.83;101236.38;4196130;28;20052;-61
2022/10/02 10:02:41;;;;;;;1.00;0.68;;;;;;;22.92;47.73;101237.22;4196256;28;20094;-61
2022/10/02 10:04:55;;;;;;;1.27;0.70;;;;;;;22.93;47.99;101238.03;4195849;28;20097;-61
2022/10/02 10:07:13;;;;;;;1.67;0.70;;;;;;;22.93;47.93;101238.03;4181024;28;20045;-61
2022/10/02 10:09:38;;;;;;;0.60;0.60;;;;;;;22.92;47.74;101230.78;4181044;28;20095;-61
2022/10/02 10:11:59;;;;;;;0.95;0.60;;;;;;;22.90;47.91;101238.59;4184731;28;20114;-60
2022/10/02 10:14:09;;;;;;;1.13;0.75;;;;;;;22.93;47.73;101243.63;4184734;28;20103;-60
2022/10/02 10:16:49;;;;;;;1.83;0.88;;;;;;;22.89;47.87;101246.16;4182938;28;20094;-60
2022/10/02 10:19:31;;;;;;;0.60;0.50;;;;;;;22.91;47.99;101248.63;4194094;28;20563;-60
2022/10/02 10:22:03;;;;;;;1.17;0.93;;;;;;;22.91;47.76;101248.63;4180320;28;20075;-60
2022/10/02 10:24:46;;;;;;;1.27;0.70;;;;;;;22.91;47.92;101251.44;4180348;28;20558;-60
2022/10/02 10:27:12;;;;;;;1.23;0.60;;;;;;;22.92;47.49;101244.75;4188584;28;20146;-60
2022/10/02 10:29:31;;;;;;;0.85;0.50;;;;;;;22.94;47.50;101251.69;4183732;28;20102;-60
2022/10/02 10:31:51;;;;;;;0.82;0.60;;;;;;;22.91;47.90;101257.88;4190511;28;20040;-60
2022/10/02 10:34:29;;;;;;;1.42;0.65;;;;;;;22.92;47.79;101258.69;4197372;28;20424;-59
2022/10/02 10:39:32;;;;;;;0.88;0.80;;;;;;;22.89;47.62;101271.25;4180720;28;20087;-60
2022/10/02 10:41:48;;;;;;;0.80;0.60;;;;;;;22.91;47.56;101277.41;4191481;28;20040;-60
2022/10/02 10:44:27;;;;;;;2.53;0.70;;;;;;;22.88;47.66;101279.91;4191341;28;20105;-60
2022/10/02 10:46:47;;;;;;;1.00;0.40;;;;;;;22.91;47.83;101279.34;4178181;28;20048;-60